Terminal Aerodrome Forecast
Issued by NWS Shreveport, LA

Home | Current Version | Previous Version | Text Only | Print | Product List | Glossary On
Versions: 1 2 3 4 5 6 7 8 9 10 11 12 13 14 15
000
FTUS44 KSHV 261722
TAFTXK
TAF
KTXK 261722Z 2618/2718 32010KT P6SM BKN035
      TEMPO 2618/2621 OVC020
     FM270000 34004KT P6SM BKN100
     FM271500 32007KT P6SM SCT050=

USA.gov is the U.S. government's official web portal to all federal, state and local government web resources and services.